Latest Weather Observations for Geelong Racecourse

IDV60801

Issued at 8:32 pm EST Saturday 23 July 2016 (issued every 30 minutes, with the page automatically refreshed every 10 minutes)

About weather observations | Map of weather stations | Latest weather observations for VIC | Other Formats
Station Details ID: 087184 Name: GEELONG RACECOURSE Lat: -38.17 Lon: 144.38 Height: 12.9 m
Data from the previous 72 hours. | See also: Recent months at Geelong Racecourse
Date/Time
EST
Temp
°C
App
Temp
°C
Dew
Point
°C
Rel
Hum
%
Delta-T
°C
Wind Press
QNH
hPa
Press
MSL
hPa
Rain since
9am
mm
Dir  Spd
km/h
Gust
km/h
Spd
kts
Gust
kts
23/08:30pm 6.5 3.0 5.5 93 0.4 NW 13 24 7 13 1012.3 1012.3 0.6
23/08:00pm 6.2 2.3 5.2 93 0.4 NW 15 19 8 10 1011.8 1011.8 0.6
23/07:30pm 6.5 2.6 5.5 93 0.4 NW 15 22 8 12 1011.6 1011.6 0.6
23/07:00pm 6.8 3.7 5.7 93 0.5 WNW 11 20 6 11 1011.4 1011.4 0.6
23/06:30pm 6.4 3.7 5.4 93 0.4 WNW 9 15 5 8 1010.9 1010.9 0.6
23/06:00pm 6.7 2.9 5.7 93 0.4 WNW 15 24 8 13 1010.4 1010.4 0.6
23/05:30pm 7.2 3.4 6.0 92 0.5 W 15 24 8 13 1010.4 1010.4 0.6
23/05:00pm 7.4 3.2 5.5 88 0.8 WNW 17 24 9 13 1009.9 1009.9 0.6
23/04:30pm 8.1 3.3 5.7 85 1.1 W 20 32 11 17 1009.4 1009.4 0.6
23/04:00pm 8.4 4.5 7.0 91 0.7 W 17 30 9 16 1009.0 1009.0 0.6
23/03:30pm 8.6 3.3 5.2 79 1.5 W 22 37 12 20 1008.8 1008.8 0.2
23/03:00pm 8.6 3.0 5.4 80 1.4 W 24 37 13 20 1007.9 1007.9 0.2
23/02:45pm 8.3 1.9 5.1 80 1.4 W 28 48 15 26 1007.8 1007.8 0.2
23/02:30pm 9.1 2.2 4.5 73 2.0 W 30 44 16 24 1007.6 1007.6 0.2
23/02:00pm 8.7 1.9 4.9 77 1.7 W 30 46 16 25 1007.1 1007.1 0.2
23/01:56pm 8.9 2.4 4.7 75 1.9 W 28 46 15 25 1007.4 1007.4 0.2
23/01:30pm 8.6 4.7 6.9 89 0.8 WSW 17 24 9 13 1006.9 1006.9 0.2
23/01:08pm 8.1 1.6 4.5 78 1.6 W 28 48 15 26 1007.1 1007.1 0.0
23/01:00pm 10.1 4.8 4.9 70 2.4 W 22 44 12 24 1006.6 1006.6 0.0
23/12:30pm 8.9 1.7 4.9 76 1.8 WNW 32 50 17 27 1006.4 1006.4 0.0
23/12:12pm 10.7 4.1 4.2 64 2.9 W 28 48 15 26 1006.0 1006.0 0.0
23/12:00pm 10.2 4.3 3.9 65 2.8 W 24 39 13 21 1006.2 1006.2 0.0
23/11:30am 10.3 5.7 5.5 72 2.2 WNW 19 32 10 17 1006.3 1006.3 0.0
23/11:00am 8.7 2.0 3.7 71 2.2 W 28 46 15 25 1006.1 1006.1 0.0
23/10:53am 8.3 1.5 3.2 70 2.2 W 28 46 15 25 1006.2 1006.2 0.0
23/10:30am 8.1 1.3 3.2 71 2.1 W 28 39 15 21 1006.0 1006.0 0.0
23/10:00am 8.3 3.0 2.8 68 2.3 WSW 20 33 11 18 1005.3 1005.3 0.0
23/09:30am 8.1 2.3 2.4 67 2.4 W 22 33 12 18 1004.9 1004.9 0.0
23/09:15am 8.2 1.1 1.4 62 2.8 W 28 48 15 26 1004.5 1004.5 0.0
23/09:00am 7.9 2.9 1.3 63 2.7 W 17 26 9 14 1004.2 1004.2 9.2
23/08:30am 7.2 2.2 1.3 66 2.4 W 17 26 9 14 1003.2 1003.2 9.2
23/08:00am 6.7 1.4 1.6 70 2.1 W 19 26 10 14 1002.8 1002.8 9.2
23/07:30am 7.0 2.1 4.0 81 1.3 W 19 33 10 18 1002.5 1002.5 9.2
23/07:00am 7.1 1.6 4.2 82 1.3 W 22 32 12 17 1001.3 1001.3 9.2
23/06:30am 7.0 1.3 4.8 86 1.0 W 24 33 13 18 1000.6 1000.6 9.2
23/06:00am 7.0 1.9 5.9 93 0.5 W 22 33 12 18 999.7 999.7 9.2
23/05:30am 7.3 2.6 6.2 93 0.5 W 20 33 11 18 998.8 998.8 9.2
23/05:00am 7.6 2.2 6.5 93 0.5 W 24 41 13 22 998.2 998.2 8.8
23/04:30am 7.6 2.6 6.5 93 0.5 WNW 22 33 12 18 997.4 997.4 8.6
23/04:00am 7.5 3.4 6.4 93 0.5 WNW 17 28 9 15 996.7 996.7 8.6
23/03:30am 7.8 2.9 6.7 93 0.5 WNW 22 32 12 17 996.3 996.3 8.2
23/03:00am 7.5 2.9 6.4 93 0.5 WNW 20 30 11 16 995.5 995.5 8.2
23/02:30am 8.0 1.6 6.8 92 0.6 W 30 46 16 25 994.9 994.9 8.2
23/02:00am 8.4 0.2 6.5 88 0.9 WNW 39 65 21 35 993.0 993.0 8.2
23/01:55am 8.4 0.3 6.9 90 0.7 WNW 39 59 21 32 992.7 992.7 8.2
23/01:30am 9.0 -0.5 6.8 86 1.0 NW 46 70 25 38 990.7 990.7 8.2
23/01:00am 9.7 1.4 6.1 78 1.7 NW 39 57 21 31 990.8 990.8 8.2
23/12:30am 9.8 2.9 7.4 85 1.1 NW 33 54 18 29 991.4 991.4 8.2
23/12:09am 9.9 4.0 7.3 84 1.2 NW 28 46 15 25 991.6 991.6 8.2
23/12:00am 9.8 4.4 7.9 88 0.9 NW 26 43 14 23 991.9 991.9 8.2
 
Date/Time
EST
Temp
°C
App
Temp
°C
Dew
Point
°C
Rel
Hum
%
Delta-T
°C
Wind Press
QNH
hPa
Press
MSL
hPa
Rain since
9am
mm
Dir  Spd
km/h
Gust
km/h
Spd
kts
Gust
kts
22/11:30pm 9.6 5.5 8.5 93 0.5 NW 20 32 11 17 992.1 992.1 8.2
22/11:00pm 9.0 5.7 7.9 93 0.5 NNW 15 26 8 14 992.4 992.4 8.2
22/10:30pm 9.0 4.9 7.9 93 0.5 NW 19 28 10 15 992.8 992.8 7.8
22/10:00pm 9.7 4.4 8.6 93 0.5 WNW 26 44 14 24 993.4 993.4 7.2
22/09:49pm 9.9 4.3 8.8 93 0.5 NW 28 52 15 28 993.6 993.6 7.0
22/09:40pm 10.1 6.1 9.0 93 0.5 NW 20 37 11 20 993.6 993.6 6.8
22/09:30pm 10.0 8.1 8.9 93 0.5 NNW 9 17 5 9 993.6 993.6 6.4
22/09:00pm 10.3 9.0 9.2 93 0.6 NNW 6 7 3 4 993.6 993.6 6.0
22/08:30pm 10.4 8.9 9.2 92 0.6 WNW 7 13 4 7 993.9 993.9 6.0
22/08:00pm 10.2 7.9 9.1 93 0.5 WNW 11 17 6 9 993.9 993.9 6.0
22/07:30pm 10.1 7.0 9.0 93 0.5 WNW 15 24 8 13 994.3 994.3 6.0
22/07:00pm 10.1 7.0 9.0 93 0.5 NW 15 24 8 13 994.5 994.5 6.0
22/06:30pm 10.3 7.3 9.2 93 0.5 NW 15 22 8 12 994.5 994.5 6.0
22/06:00pm 10.9 7.7 9.8 93 0.6 NW 17 22 9 12 994.5 994.5 6.0
22/05:30pm 11.3 9.0 10.4 94 0.5 WNW 13 20 7 11 994.6 994.6 6.0
22/05:00pm 11.5 8.9 10.6 94 0.5 WNW 15 30 8 16 994.7 994.7 5.8
22/04:30pm 12.6 9.4 11.3 92 0.7 NW 19 26 10 14 994.1 994.1 4.2
22/04:00pm 13.1 9.3 11.0 87 1.1 WNW 22 35 12 19 994.1 994.1 4.2
22/03:30pm 13.3 9.6 11.5 89 1.0 WNW 22 35 12 19 994.2 994.2 4.2
22/03:00pm 13.1 9.9 11.8 92 0.7 NW 20 32 11 17 993.9 993.9 4.2
22/02:30pm 12.5 8.4 11.4 93 0.6 NW 24 33 13 18 994.2 994.2 4.2
22/02:00pm 11.9 8.0 10.8 93 0.6 WNW 22 33 12 18 994.3 994.3 4.2
22/01:30pm 11.0 5.3 9.9 93 0.6 WNW 30 50 16 27 994.9 994.9 3.6
22/01:00pm 14.2 7.3 8.8 70 2.8 WNW 35 70 19 38 995.0 995.0 0.0
22/12:30pm 16.8 10.6 10.0 64 3.6 NW 33 54 18 29 993.7 993.7 0.0
22/12:03pm 16.6 10.9 9.8 64 3.6 NW 30 54 16 29 993.9 993.9 0.0
22/12:00pm 16.7 11.5 10.1 65 3.5 NW 28 43 15 23 994.1 994.1 0.0
22/11:30am 15.8 10.5 9.9 68 3.1 NW 28 44 15 24 994.3 994.3 0.0
22/11:00am 15.6 9.5 9.7 68 3.1 NW 32 46 17 25 994.8 994.8 0.0
22/10:30am 15.3 10.3 10.9 75 2.3 NW 28 44 15 24 995.1 995.1 0.0
22/10:00am 15.3 11.3 11.9 80 1.9 NW 24 35 13 19 995.4 995.4 0.0
22/09:30am 15.3 11.3 11.9 80 1.8 NW 24 39 13 21 995.8 995.8 0.0
22/09:00am 14.9 12.4 13.6 92 0.7 NW 19 28 10 15 995.7 995.7 8.8
22/08:30am 15.0 12.9 13.7 92 0.7 WNW 17 26 9 14 996.0 996.0 8.6
22/08:00am 15.3 13.7 14.0 92 0.7 NW 15 22 8 12 996.0 996.0 8.6
22/07:30am 15.5 13.6 14.2 92 0.7 NW 17 28 9 15 996.3 996.3 8.6
22/07:00am 14.9 13.3 13.8 93 0.6 NW 15 20 8 11 996.1 996.1 8.6
22/06:30am 14.9 12.9 13.8 93 0.6 NW 17 24 9 13 996.5 996.5 8.6
22/06:00am 14.6 12.5 13.6 94 0.6 NW 17 24 9 13 997.0 997.0 8.4
22/05:30am 14.4 11.7 13.4 94 0.6 NW 20 32 11 17 997.2 997.2 8.4
22/05:00am 16.1 11.1 15.1 94 0.6 NNW 35 56 19 30 997.8 997.8 6.0
22/04:50am 16.7 13.2 15.6 93 0.6 NNW 28 46 15 25 996.3 996.3 4.6
22/04:30am 16.8 13.7 15.7 93 0.6 NNW 26 46 14 25 996.8 996.8 3.8
22/04:22am 17.2 13.8 15.9 92 0.8 NNW 28 48 15 26 997.2 997.2 3.8
22/04:00am 17.5 14.5 15.8 90 1.0 NNW 26 43 14 23 997.5 997.5 3.6
22/03:30am 15.6 14.2 14.5 93 0.6 N 15 24 8 13 998.5 998.5 3.6
22/03:00am 16.0 13.3 14.5 91 0.9 NNE 22 33 12 18 998.9 998.9 3.0
22/02:30am 15.7 12.9 14.4 92 0.7 N 22 35 12 19 1000.0 1000.0 3.0
22/02:00am 16.3 12.9 12.5 78 2.1 N 22 33 12 18 1001.0 1001.0 2.6
22/01:30am 16.6 12.3 12.0 74 2.5 N 26 44 14 24 1001.5 1001.5 2.6
22/01:00am 16.7 12.3 11.6 72 2.8 N 26 37 14 20 1001.6 1001.6 2.6
22/12:30am 16.4 12.7 11.6 73 2.6 N 22 32 12 17 1002.6 1002.6 2.6
22/12:00am 16.7 12.6 11.6 72 2.8 N 24 37 13 20 1003.5 1003.5 2.6
 
Date/Time
EST
Temp
°C
App
Temp
°C
Dew
Point
°C
Rel
Hum
%
Delta-T
°C
Wind Press
QNH
hPa
Press
MSL
hPa
Rain since
9am
mm
Dir  Spd
km/h
Gust
km/h
Spd
kts
Gust
kts
21/11:30pm 16.2 12.5 11.6 74 2.5 N 22 32 12 17 1004.4 1004.4 2.6
21/11:00pm 15.9 13.2 11.7 76 2.3 N 17 28 9 15 1005.4 1005.4 2.6
21/10:30pm 14.4 13.1 12.4 88 1.1 NNE 11 19 6 10 1006.0 1006.0 2.6
21/10:00pm 14.6 12.2 12.5 87 1.1 NNE 17 22 9 12 1006.0 1006.0 2.6
21/09:30pm 14.4 11.9 12.3 87 1.1 N 17 24 9 13 1006.2 1006.2 2.6
21/09:00pm 13.7 11.3 12.6 93 0.6 NNE 17 24 9 13 1006.5 1006.5 2.6
21/08:30pm 13.6 11.5 12.5 93 0.6 NNE 15 22 8 12 1007.4 1007.4 2.6
21/08:00pm 13.8 11.7 12.4 91 0.8 NNE 15 26 8 14 1007.9 1007.9 2.6
21/07:30pm 15.3 12.1 11.3 77 2.1 N 19 26 10 14 1008.5 1008.5 2.6
21/07:00pm 14.3 12.4 11.8 85 1.3 NNE 13 19 7 10 1009.0 1009.0 2.6
21/06:30pm 14.7 13.8 11.3 80 1.8 NNE 7 13 4 7 1009.3 1009.3 2.6
21/06:00pm 15.4 13.7 11.2 76 2.2 N 11 15 6 8 1009.6 1009.6 2.6
21/05:30pm 15.6 14.0 11.4 76 2.3 N 11 17 6 9 1009.8 1009.8 2.6
21/05:00pm 15.9 14.4 11.9 77 2.2 NNW 11 17 6 9 1010.3 1010.3 2.6
21/04:30pm 16.7 15.3 12.3 75 2.4 NW 11 19 6 10 1010.2 1010.2 2.6
21/04:00pm 17.2 14.0 11.9 71 2.9 NW 20 32 11 17 1010.3 1010.3 2.6
21/03:30pm 18.0 14.8 12.0 68 3.3 NW 20 30 11 16 1010.3 1010.3 2.6
21/03:00pm 17.8 15.3 12.3 70 3.0 NW 17 32 9 17 1010.5 1010.5 2.6
21/02:30pm 16.9 16.3 13.4 80 2.0 N 9 13 5 7 1010.7 1010.7 2.6
21/02:00pm 15.4 15.4 14.1 92 0.7 N 7 11 4 6 1011.2 1011.2 2.6
21/01:30pm 14.2 13.5 13.1 93 0.6 NNE 9 13 5 7 1011.6 1011.6 2.6
21/01:00pm 13.3 11.9 12.2 93 0.6 NNE 11 13 6 7 1012.4 1012.4 2.6
21/12:30pm 12.4 11.2 11.5 94 0.5 NE 9 13 5 7 1013.0 1013.0 2.6
21/12:00pm 11.3 10.2 10.5 95 0.4 NE 7 11 4 6 1014.0 1014.0 2.6
21/11:30am 10.3 9.1 9.7 96 0.3 NNE 6 11 3 6 1014.5 1014.5 2.6
21/11:00am 9.6 7.3 9.0 96 0.3 ENE 11 19 6 10 1014.7 1014.7 2.2
21/10:30am 9.6 8.1 9.0 96 0.3 NE 7 13 4 7 1015.3 1015.3 0.4
21/10:00am 9.4 8.0 8.8 96 0.3 NE 6 9 3 5 1015.7 1015.7 0.4
21/09:30am 8.9 7.8 8.3 96 0.3 NNE 4 9 2 5 1016.0 1016.0 0.4
21/09:00am 8.6 8.2 8.2 97 0.2 CALM 0 4 0 2 1015.9 1015.9 1.2
21/08:30am 8.6 7.0 8.2 97 0.2 N 6 7 3 4 1016.5 1016.5 0.6
21/08:00am 8.0 7.4 7.4 96 0.3 CALM 0 2 0 1 1016.5 1016.5 0.6
21/07:30am 7.1 5.2 6.5 96 0.3 NW 6 7 3 4 1016.7 1016.7 0.6
21/07:00am 6.8 5.5 6.2 96 0.3 NW 2 4 1 2 1016.5 1016.5 0.6
21/06:30am 6.7 5.4 6.1 96 0.3 NW 2 6 1 3 1016.9 1016.9 0.4
21/06:00am 6.2 5.2 5.6 96 0.3 CALM 0 0 0 0 1017.0 1017.0 0.4
21/05:30am 5.7 4.6 5.1 96 0.3 CALM 0 0 0 0 1017.2 1017.2 0.0
21/05:00am 5.3 4.1 4.7 96 0.3 CALM 0 0 0 0 1017.3 1017.3 0.0
21/04:30am 4.4 3.0 3.8 96 0.2 CALM 0 0 0 0 1017.6 1017.6 0.0
21/04:00am 3.9 2.5 3.3 96 0.2 CALM 0 0 0 0 1017.9 1017.9 0.0
21/03:30am 4.4 3.0 3.8 96 0.2 CALM 0 0 0 0 1018.5 1018.5 0.0
21/03:00am 4.6 3.3 4.0 96 0.3 CALM 0 0 0 0 1018.8 1018.8 0.0
21/02:30am 5.1 3.5 4.5 96 0.3 NW 2 2 1 1 1019.3 1019.3 0.0
21/02:00am 5.0 3.0 4.4 96 0.3 NW 4 4 2 2 1019.6 1019.6 0.0
21/01:30am 5.6 4.5 5.0 96 0.3 CALM 0 0 0 0 1019.7 1019.7 0.0
21/01:00am 5.2 3.2 4.6 96 0.3 NW 4 6 2 3 1019.9 1019.9 0.0
21/12:30am 5.7 3.8 5.1 96 0.3 NW 4 4 2 2 1020.1 1020.1 0.0
21/12:00am 5.8 4.7 5.2 96 0.3 CALM 0 0 0 0 1020.3 1020.3 0.0
 
Date/Time
EST
Temp
°C
App
Temp
°C
Dew
Point
°C
Rel
Hum
%
Delta-T
°C
Wind Press
QNH
hPa
Press
MSL
hPa
Rain since
9am
mm
Dir  Spd
km/h
Gust
km/h
Spd
kts
Gust
kts
20/11:30pm 6.0 3.8 5.4 96 0.3 NNW 6 6 3 3 1020.5 1020.5 0.0
20/11:00pm 6.4 5.4 5.8 96 0.3 CALM 0 0 0 0 1020.5 1020.5 0.0
20/10:30pm 7.1 6.3 6.5 96 0.3 CALM 0 0 0 0 1020.6 1020.6 0.0
20/10:00pm 7.0 6.2 6.4 96 0.3 CALM 0 0 0 0 1020.9 1020.9 0.0
20/09:30pm 7.6 6.9 7.0 96 0.3 CALM 0 0 0 0 1021.1 1021.1 0.0
20/09:00pm 7.7 7.0 7.0 95 0.3 CALM 0 0 0 0 1021.3 1021.3 0.0

Other Formats:

Comma delimited format used in spreadsheet applications
http://www.bom.gov.au/fwo/IDV60801/IDV60801.94857.axf

JavaScript Object Notation format (JSON) in row-major order
http://www.bom.gov.au/fwo/IDV60801/IDV60801.94857.json